Time;durP1;ratioP1;P1;durP2;ratioP2;P2;SDS_P1;SDS_P2;PMS_P1;PMS_P2;Temp;Humidity;BMP_temperature;BMP_pressure;BME280_temperature;BME280_humidity;BME280_pressure;Samples;Min_cycle;Max_cycle;Signal;HPM_P1;HPM_P2
2021/07/17 00:00:18;;;;;;;30.87;27.60;;;;;;;20.66;nan;98881.75;2080525;28;20243;-78
2021/07/17 00:01:20;;;;;;;31.37;28.20;;;;;;;20.61;nan;98890.22;2088799;28;20460;-79
2021/07/17 00:02:23;;;;;;;31.70;28.43;;;;;;;20.56;nan;98885.88;2088271;28;20472;-79
2021/07/17 00:03:25;;;;;;;31.37;27.53;;;;;;;20.51;nan;98886.22;2080787;28;21007;-79
2021/07/17 00:04:26;;;;;;;31.70;28.77;;;;;;;20.48;nan;98891.56;2088764;28;20533;-79
2021/07/17 00:05:28;;;;;;;31.50;28.07;;;;;;;20.44;nan;98893.47;2088753;28;20468;-79
2021/07/17 00:06:28;;;;;;;31.33;28.40;;;;;;;20.40;nan;98889.88;2080429;28;20521;-79
2021/07/17 00:07:30;;;;;;;31.97;29.03;;;;;;;20.38;nan;98889.47;2088774;28;20453;-79
2021/07/17 00:08:31;;;;;;;33.73;28.93;;;;;;;20.32;nan;98883.56;2088426;28;20222;-79
2021/07/17 00:09:32;;;;;;;33.40;28.37;;;;;;;20.30;nan;98889.38;2088730;28;20517;-78
2021/07/17 00:10:37;;;;;;;31.70;28.40;;;;;;;20.28;nan;98897.09;2089544;28;20250;-78
2021/07/17 00:11:39;;;;;;;31.63;28.73;;;;;;;20.23;nan;98891.19;2088273;28;20461;-78
2021/07/17 00:12:40;;;;;;;32.07;28.67;;;;;;;20.20;nan;98889.22;2080425;28;20525;-79
2021/07/17 00:13:42;;;;;;;39.00;29.67;;;;;;;20.17;nan;98888.03;2088649;28;20809;-79
2021/07/17 00:14:42;;;;;;;32.97;29.57;;;;;;;20.13;nan;98887.16;2088540;28;20480;-79
2021/07/17 00:15:45;;;;;;;32.50;29.30;;;;;;;20.10;nan;98892.53;2088611;28;20449;-78
2021/07/17 00:16:46;;;;;;;32.77;29.23;;;;;;;20.10;nan;98890.63;2088828;28;20253;-78
2021/07/17 00:17:49;;;;;;;32.57;29.37;;;;;;;20.07;nan;98888.63;2088474;28;20468;-78
2021/07/17 00:18:51;;;;;;;31.13;28.13;;;;;;;20.03;nan;98887.78;2089407;28;20578;-78
2021/07/17 00:19:53;;;;;;;32.03;28.97;;;;;;;20.00;nan;98889.31;2088157;28;20485;-79
2021/07/17 00:20:54;;;;;;;32.07;28.97;;;;;;;19.97;nan;98892.72;2088358;28;20246;-79
2021/07/17 00:21:55;;;;;;;32.90;29.43;;;;;;;19.95;nan;98895.00;2088366;28;20465;-78
2021/07/17 00:22:57;;;;;;;32.07;28.77;;;;;;;19.94;nan;98900.78;2088643;28;20456;-78
2021/07/17 00:23:57;;;;;;;33.70;30.60;;;;;;;19.90;nan;98891.84;2096875;28;20317;-78
2021/07/17 00:24:59;;;;;;;34.23;30.83;;;;;;;19.90;nan;98908.88;2096931;28;20445;-79
2021/07/17 00:25:59;;;;;;;34.03;30.33;;;;;;;19.90;nan;98898.03;2089429;28;20607;-79
2021/07/17 00:27:01;;;;;;;34.67;30.37;;;;;;;19.88;nan;98891.41;2089258;28;20521;-79
2021/07/17 00:28:02;;;;;;;33.90;30.53;;;;;;;19.87;nan;98892.53;2089392;28;20222;-78
2021/07/17 00:29:04;;;;;;;33.43;30.33;;;;;;;19.88;nan;98896.81;2089270;28;20438;-79
2021/07/17 00:30:06;;;;;;;33.87;30.37;;;;;;;19.86;nan;98888.28;2089262;28;20473;-79
2021/07/17 00:31:07;;;;;;;34.20;30.57;;;;;;;19.85;nan;98884.00;2088180;28;20473;-79
2021/07/17 00:32:08;;;;;;;33.43;30.00;;;;;;;19.86;nan;98885.56;2088558;28;20860;-78
2021/07/17 00:33:11;;;;;;;34.77;30.77;;;;;;;19.85;nan;98881.31;2089297;28;20528;-79
2021/07/17 00:34:12;;;;;;;33.20;29.67;;;;;;;19.83;nan;98887.09;2089323;28;20449;-78
2021/07/17 00:35:14;;;;;;;34.20;31.00;;;;;;;19.87;nan;98882.50;2088684;28;20481;-78
2021/07/17 00:36:15;;;;;;;33.60;30.33;;;;;;;20.04;nan;98886.63;2088798;28;20223;-79
2021/07/17 00:37:16;;;;;;;34.60;31.17;;;;;;;20.32;nan;98880.88;2088521;28;20441;-79
2021/07/17 00:38:17;;;;;;;33.63;30.20;;;;;;;20.25;nan;98888.91;2089283;28;20276;-79
2021/07/17 00:39:18;;;;;;;33.33;29.87;;;;;;;20.25;nan;98889.69;2089245;28;20467;-79
2021/07/17 00:40:22;;;;;;;34.77;30.90;;;;;;;20.24;nan;98884.63;2089244;28;20230;-79
2021/07/17 00:41:24;;;;;;;34.40;30.90;;;;;;;20.24;nan;98890.03;2088776;28;20870;-79
2021/07/17 00:42:24;;;;;;;34.87;31.13;;;;;;;20.33;nan;98891.38;2089119;28;20485;-79
2021/07/17 00:43:27;;;;;;;34.17;31.17;;;;;;;20.31;nan;98885.50;2088289;28;20453;-79
2021/07/17 00:44:27;;;;;;;33.20;30.07;;;;;;;20.32;nan;98883.56;2088703;28;21074;-79
2021/07/17 00:45:29;;;;;;;35.40;31.33;;;;;;;20.30;nan;98883.16;2088626;28;20877;-79
2021/07/17 00:46:31;;;;;;;33.40;29.60;;;;;;;20.22;nan;98876.84;2088516;28;20310;-78
2021/07/17 00:47:34;;;;;;;33.97;30.50;;;;;;;20.17;nan;98870.97;2096264;28;20561;-79
2021/07/17 00:48:38;;;;;;;32.87;29.87;;;;;;;20.08;nan;98865.81;2096426;28;20457;-79
2021/07/17 00:49:39;;;;;;;34.80;30.60;;;;;;;20.02;nan;98861.84;2087953;28;20473;-79
2021/07/17 00:50:42;;;;;;;35.23;31.47;;;;;;;19.97;nan;98856.72;2088523;28;20952;-79
2021/07/17 00:51:44;;;;;;;39.90;32.00;;;;;;;19.94;nan;98860.16;2088380;28;20453;-79
2021/07/17 00:52:44;;;;;;;36.20;32.70;;;;;;;19.91;nan;98863.63;2088368;28;20982;-79
2021/07/17 00:53:46;;;;;;;36.00;32.27;;;;;;;19.89;nan;98865.88;2088309;28;20823;-79
2021/07/17 00:54:49;;;;;;;35.77;32.07;;;;;;;19.92;nan;98867.88;2088521;28;20231;-79
2021/07/17 00:55:52;;;;;;;35.73;31.93;;;;;;;20.08;nan;98867.75;2088137;28;20524;-79
2021/07/17 00:56:53;;;;;;;34.70;31.13;;;;;;;20.09;nan;98870.09;2088077;28;20473;-78
2021/07/17 00:57:56;;;;;;;34.20;30.73;;;;;;;20.10;nan;98877.06;2088197;28;20854;-78
2021/07/17 00:59:00;;;;;;;33.30;30.17;;;;;;;20.12;nan;98877.47;2088503;28;20453;-79
2021/07/17 01:00:03;;;;;;;35.00;31.53;;;;;;;20.07;nan;98874.28;2089106;28;20445;-79
2021/07/17 01:01:04;;;;;;;36.10;32.40;;;;;;;20.00;nan;98877.69;2089003;28;20504;-79
2021/07/17 01:02:06;;;;;;;33.57;30.37;;;;;;;19.93;nan;98867.53;2088173;28;20501;-79
2021/07/17 01:03:08;;;;;;;35.63;31.87;;;;;;;19.89;nan;98868.59;2087989;28;20456;-79
2021/07/17 01:04:12;;;;;;;38.43;32.93;;;;;;;19.86;nan;98866.63;2089094;28;20510;-79
2021/07/17 01:05:14;;;;;;;36.27;31.87;;;;;;;19.85;nan;98875.88;2087840;28;20855;-78
2021/07/17 01:06:15;;;;;;;41.70;33.50;;;;;;;19.83;nan;98872.78;2088534;28;20449;-79
2021/07/17 01:07:17;;;;;;;36.57;32.63;;;;;;;19.82;nan;98879.31;2088316;28;20866;-79
2021/07/17 01:08:20;;;;;;;36.30;32.57;;;;;;;19.82;nan;98882.03;2088326;28;20484;-79
2021/07/17 01:09:21;;;;;;;36.07;32.27;;;;;;;19.82;nan;98882.03;2088348;28;20452;-79
2021/07/17 01:10:23;;;;;;;37.33;33.63;;;;;;;19.84;nan;98887.88;2088607;28;20449;-79
2021/07/17 01:11:23;;;;;;;38.03;32.57;;;;;;;19.82;nan;98901.00;2088801;28;20234;-79
2021/07/17 01:12:25;;;;;;;36.17;32.47;;;;;;;19.79;nan;98893.56;2088070;28;20448;-79
2021/07/17 01:13:27;;;;;;;35.77;32.17;;;;;;;19.78;nan;98903.63;2088192;28;20238;-79
2021/07/17 01:14:27;;;;;;;34.93;31.07;;;;;;;19.75;nan;98899.72;2089020;28;20813;-78
2021/07/17 01:15:29;;;;;;;35.67;32.10;;;;;;;19.74;nan;98903.56;2088903;28;20446;-79
2021/07/17 01:16:30;;;;;;;37.60;33.73;;;;;;;19.72;nan;98905.84;2088911;28;20225;-79
2021/07/17 01:17:32;;;;;;;36.27;32.53;;;;;;;19.72;nan;98908.56;2088045;28;20438;-79
2021/07/17 01:18:33;;;;;;;35.53;32.23;;;;;;;19.68;nan;98907.72;2088234;28;20265;-79
2021/07/17 01:19:36;;;;;;;35.43;31.77;;;;;;;19.63;nan;98913.41;2088313;28;20453;-79
2021/07/17 01:20:38;;;;;;;35.67;31.97;;;;;;;19.68;nan;98918.53;2087272;28;20320;-79
2021/07/17 01:21:41;;;;;;;40.20;32.50;;;;;;;19.76;nan;98920.22;2087877;28;20557;-78
2021/07/17 01:22:42;;;;;;;34.93;31.60;;;;;;;19.80;nan;98924.91;2088005;28;20465;-78
2021/07/17 01:23:45;;;;;;;35.73;32.10;;;;;;;19.81;nan;98921.06;2088319;28;20449;-79
2021/07/17 01:24:46;;;;;;;35.63;32.13;;;;;;;19.79;nan;98923.34;2088300;28;20446;-79
2021/07/17 01:25:48;;;;;;;48.30;31.97;;;;;;;19.70;nan;98924.38;2088900;28;20449;-79
2021/07/17 01:26:49;;;;;;;35.30;31.80;;;;;;;19.64;nan;98925.81;2088094;28;20453;-78
2021/07/17 01:27:51;;;;;;;36.43;32.50;;;;;;;19.68;nan;98921.25;2088190;28;20507;-78
2021/07/17 01:28:52;;;;;;;37.03;33.30;;;;;;;19.67;nan;98924.31;2087630;28;20226;-79
2021/07/17 01:29:54;;;;;;;34.70;31.33;;;;;;;19.67;nan;98927.03;2088760;28;20441;-78
2021/07/17 01:30:54;;;;;;;36.93;33.17;;;;;;;19.65;nan;98926.59;2088726;28;20696;-79
2021/07/17 01:31:56;;;;;;;36.53;32.63;;;;;;;19.68;nan;98931.28;2095860;28;20875;-78
2021/07/17 01:32:57;;;;;;;36.47;32.40;;;;;;;19.72;nan;98941.06;2096282;28;20706;-79
2021/07/17 01:33:59;;;;;;;34.80;31.37;;;;;;;19.74;nan;98941.47;2088892;28;20453;-79
2021/07/17 01:35:00;;;;;;;35.43;31.83;;;;;;;19.69;nan;98933.63;2088122;28;20483;-78
2021/07/17 01:36:01;;;;;;;35.70;32.33;;;;;;;19.65;nan;98932.78;2088224;28;20445;-79
2021/07/17 01:37:04;;;;;;;41.03;33.10;;;;;;;19.62;nan;98935.41;2087975;28;20254;-79
2021/07/17 01:38:06;;;;;;;36.63;33.10;;;;;;;19.59;nan;98933.44;2088000;28;20916;-79
2021/07/17 01:39:07;;;;;;;36.70;32.87;;;;;;;19.52;nan;98928.66;2087738;28;20457;-78
2021/07/17 01:40:17;;;;;;;37.10;32.47;;;;;;;19.48;nan;98930.50;2088276;28;20484;-79
2021/07/17 01:41:19;;;;;;;39.00;34.80;;;;;;;19.43;nan;98922.69;2088171;28;20721;-79
2021/07/17 01:42:21;;;;;;;39.03;34.93;;;;;;;19.42;nan;98929.22;2088735;28;20441;-79
2021/07/17 01:43:22;;;;;;;40.00;35.60;;;;;;;19.40;nan;98926.09;2088191;28;20453;-78
2021/07/17 01:44:24;;;;;;;37.50;33.50;;;;;;;19.41;nan;98925.75;2087912;28;20454;-78
2021/07/17 01:45:28;;;;;;;36.83;32.90;;;;;;;19.41;nan;98928.44;2087898;28;20218;-78
2021/07/17 01:46:30;;;;;;;39.80;33.20;;;;;;;19.37;nan;98927.63;2088156;28;20461;-79
2021/07/17 01:47:32;;;;;;;43.03;34.30;;;;;;;19.37;nan;98929.50;2088775;28;20533;-79
2021/07/17 01:48:32;;;;;;;35.20;31.63;;;;;;;19.40;nan;98924.19;2088251;28;20253;-78
2021/07/17 01:49:34;;;;;;;35.97;32.17;;;;;;;19.42;nan;98929.22;2088137;28;20987;-79
2021/07/17 01:50:36;;;;;;;37.83;33.33;;;;;;;19.46;nan;98930.09;2088155;28;20218;-79
2021/07/17 01:51:38;;;;;;;35.33;31.83;;;;;;;19.50;nan;98930.94;2087656;28;20515;-79
2021/07/17 01:52:41;;;;;;;36.23;32.43;;;;;;;19.55;nan;98922.53;2088050;28;20527;-79
2021/07/17 01:53:43;;;;;;;39.80;32.13;;;;;;;19.63;nan;98926.94;2088229;28;20487;-79
2021/07/17 01:54:43;;;;;;;35.53;31.73;;;;;;;19.61;nan;98926.53;2087915;28;20469;-78
2021/07/17 01:55:45;;;;;;;35.40;31.73;;;;;;;19.58;nan;98921.06;2087742;28;20442;-78
2021/07/17 01:56:48;;;;;;;36.30;32.50;;;;;;;19.56;nan;98920.59;2087861;28;20239;-79
2021/07/17 01:57:50;;;;;;;33.87;30.67;;;;;;;19.55;nan;98911.72;2088031;28;20547;-79
2021/07/17 01:58:54;;;;;;;34.17;30.50;;;;;;;19.54;nan;98904.72;2087631;28;20947;-79
2021/07/17 01:59:56;;;;;;;35.13;31.53;;;;;;;19.60;nan;98911.44;2088689;28;20446;-79
2021/07/17 02:00:56;;;;;;;34.57;31.20;;;;;;;19.59;nan;98907.16;2087849;28;20555;-79
2021/07/17 02:01:59;;;;;;;33.17;29.77;;;;;;;19.58;nan;98908.31;2079404;28;20466;-79
2021/07/17 02:03:00;;;;;;;32.90;29.73;;;;;;;19.60;nan;98911.44;2087879;28;20791;-79
2021/07/17 02:04:01;;;;;;;33.87;30.53;;;;;;;19.63;nan;98904.50;2087784;28;20471;-79
2021/07/17 02:05:03;;;;;;;34.93;31.33;;;;;;;19.57;nan;98898.63;2087926;28;20229;-78
2021/07/17 02:06:05;;;;;;;34.40;30.53;;;;;;;19.52;nan;98896.16;2088605;28;21035;-79
2021/07/17 02:07:06;;;;;;;33.73;30.30;;;;;;;19.53;nan;98902.38;2087728;28;20464;-79
2021/07/17 02:08:14;;;;;;;34.23;30.93;;;;;;;19.49;nan;98907.72;2087598;28;20462;-79
2021/07/17 02:09:14;;;;;;;34.50;31.10;;;;;;;19.47;nan;98915.44;2087987;28;20796;-79
2021/07/17 02:10:18;;;;;;;35.47;30.60;;;;;;;19.48;nan;98912.34;2087702;28;20527;-79
2021/07/17 02:11:19;;;;;;;33.87;30.57;;;;;;;19.55;nan;98922.53;2087680;28;20223;-79
2021/07/17 02:12:21;;;;;;;34.10;30.50;;;;;;;19.65;nan;98916.56;2087916;28;20461;-79
2021/07/17 02:13:22;;;;;;;36.00;32.40;;;;;;;19.61;nan;98918.41;2088217;28;20465;-78
2021/07/17 02:14:24;;;;;;;35.13;31.70;;;;;;;19.59;nan;98919.91;2088199;28;20441;-79
2021/07/17 02:15:25;;;;;;;35.43;31.77;;;;;;;19.54;nan;98918.25;2087929;28;20317;-78
2021/07/17 02:16:26;;;;;;;34.13;30.80;;;;;;;19.52;nan;98920.53;2087707;28;20472;-78
2021/07/17 02:17:27;;;;;;;34.50;31.23;;;;;;;19.48;nan;98923.19;2095642;28;20491;-78
2021/07/17 02:18:31;;;;;;;33.73;30.60;;;;;;;19.54;nan;98923.66;2096065;28;20455;-78
2021/07/17 02:19:32;;;;;;;34.00;30.33;;;;;;;19.48;nan;98911.56;2088567;28;20215;-78
2021/07/17 02:20:35;;;;;;;36.43;31.07;;;;;;;19.42;nan;98913.78;2088553;28;20496;-78
2021/07/17 02:21:37;;;;;;;35.77;31.57;;;;;;;19.37;nan;98913.28;2087952;28;20492;-78
2021/07/17 02:22:38;;;;;;;35.13;31.63;;;;;;;19.33;nan;98909.72;2087967;28;20457;-78
2021/07/17 02:23:40;;;;;;;34.43;31.03;;;;;;;19.29;nan;98908.91;2087665;28;20222;-78
2021/07/17 02:24:42;;;;;;;37.03;31.20;;;;;;;19.28;nan;98907.31;2087403;28;20502;-78
2021/07/17 02:25:42;;;;;;;33.40;30.07;;;;;;;19.28;nan;98912.72;2087757;28;20457;-78
2021/07/17 02:26:45;;;;;;;34.07;30.57;;;;;;;19.31;nan;98903.91;2079475;28;20546;-78
2021/07/17 02:27:45;;;;;;;33.97;30.57;;;;;;;19.30;nan;98910.47;2087869;28;20226;-79
2021/07/17 02:28:47;;;;;;;39.33;30.57;;;;;;;19.28;nan;98908.09;2087715;28;20450;-78
2021/07/17 02:29:47;;;;;;;33.37;29.97;;;;;;;19.24;nan;98907.25;2087282;28;20214;-78
2021/07/17 02:30:50;;;;;;;33.97;30.37;;;;;;;19.22;nan;98904.13;2087645;28;20453;-78
2021/07/17 02:31:51;;;;;;;32.90;29.40;;;;;;;19.23;nan;98910.31;2087620;28;20222;-78
2021/07/17 02:32:52;;;;;;;33.63;29.73;;;;;;;19.22;nan;98908.75;2096705;28;20490;-78
2021/07/17 02:33:53;;;;;;;35.03;30.90;;;;;;;19.20;nan;98912.59;2090172;28;20230;-78
2021/07/17 02:34:55;;;;;;;33.20;29.93;;;;;;;19.17;nan;98918.69;2090215;28;20449;-78
2021/07/17 02:35:55;;;;;;;33.27;29.97;;;;;;;19.16;nan;98917.16;2090241;28;20218;-78
2021/07/17 02:36:57;;;;;;;33.33;29.87;;;;;;;19.20;nan;98926.13;2090221;28;20550;-78
2021/07/17 02:37:59;;;;;;;34.03;30.40;;;;;;;19.21;nan;98924.19;2090136;28;20507;-78
2021/07/17 02:39:02;;;;;;;33.03;29.53;;;;;;;19.23;nan;98915.72;2090116;28;20441;-78
2021/07/17 02:40:03;;;;;;;32.57;29.30;;;;;;;19.26;nan;98920.41;2090112;28;20587;-78
2021/07/17 02:41:05;;;;;;;34.43;31.03;;;;;;;19.33;nan;98920.56;2090103;28;20463;-78
2021/07/17 02:42:06;;;;;;;33.97;30.77;;;;;;;19.31;nan;98917.44;2090099;28;20522;-78
2021/07/17 02:43:08;;;;;;;34.07;30.57;;;;;;;19.30;nan;98911.25;2089017;28;20464;-78
2021/07/17 02:44:08;;;;;;;34.40;30.87;;;;;;;19.29;nan;98920.50;2089530;28;20222;-78
2021/07/17 02:45:12;;;;;;;34.43;30.97;;;;;;;19.25;nan;98914.22;2089186;28;20951;-78
2021/07/17 02:46:12;;;;;;;35.07;31.50;;;;;;;19.28;nan;98918.13;2090220;28;20222;-78
2021/07/17 02:47:14;;;;;;;34.67;31.37;;;;;;;19.26;nan;98912.28;2090038;28;20983;-78
2021/07/17 02:48:15;;;;;;;35.63;32.13;;;;;;;19.20;nan;98909.91;2088919;28;20557;-78
2021/07/17 02:49:16;;;;;;;38.13;32.20;;;;;;;19.18;nan;98928.38;2089449;28;20448;-78
2021/07/17 02:50:18;;;;;;;36.40;32.50;;;;;;;19.15;nan;98918.28;2090037;28;20234;-78
2021/07/17 02:51:20;;;;;;;36.97;32.00;;;;;;;19.11;nan;98913.94;2090089;28;20967;-78
2021/07/17 02:52:20;;;;;;;34.80;30.90;;;;;;;19.09;nan;98917.00;2090133;28;20222;-78
2021/07/17 02:53:22;;;;;;;34.23;30.83;;;;;;;19.08;nan;98910.03;2090155;28;20449;-78
2021/07/17 02:54:25;;;;;;;34.97;31.23;;;;;;;19.07;nan;98913.88;2089716;28;20222;-78
2021/07/17 02:55:26;;;;;;;36.10;31.50;;;;;;;19.06;nan;98912.31;2090030;28;20804;-78
2021/07/17 02:56:27;;;;;;;36.00;32.40;;;;;;;19.07;nan;98913.09;2089317;28;20491;-78
2021/07/17 02:57:29;;;;;;;38.37;31.13;;;;;;;19.13;nan;98917.88;2089383;28;20449;-78
2021/07/17 02:58:30;;;;;;;35.07;31.43;;;;;;;19.11;nan;98909.34;2089415;28;20223;-78
2021/07/17 02:59:31;;;;;;;36.57;32.67;;;;;;;19.09;nan;98911.59;2089900;28;20449;-78
2021/07/17 03:00:34;;;;;;;37.73;33.93;;;;;;;19.07;nan;98910.38;2089915;28;20669;-78
2021/07/17 03:01:35;;;;;;;39.00;32.30;;;;;;;19.05;nan;98908.03;2089344;28;20549;-78
2021/07/17 03:02:36;;;;;;;37.27;33.37;;;;;;;19.04;nan;98911.09;2089115;28;20510;-78
2021/07/17 03:03:37;;;;;;;37.50;33.70;;;;;;;19.03;nan;98913.03;2088650;28;20503;-78
2021/07/17 03:04:38;;;;;;;38.07;34.10;;;;;;;19.02;nan;98913.34;2080934;28;20228;-78
2021/07/17 03:05:40;;;;;;;39.77;35.43;;;;;;;19.01;nan;98912.56;2089086;28;20471;-78
2021/07/17 03:06:41;;;;;;;43.23;35.70;;;;;;;19.02;nan;98910.66;2089322;28;20223;-79
2021/07/17 03:07:42;;;;;;;39.03;35.00;;;;;;;19.01;nan;98907.16;2089869;28;20445;-78
2021/07/17 03:08:43;;;;;;;39.47;34.53;;;;;;;19.00;nan;98902.91;2089978;28;20223;-78
2021/07/17 03:09:46;;;;;;;39.70;34.83;;;;;;;19.00;nan;98908.31;2089998;28;20438;-78
2021/07/17 03:10:47;;;;;;;37.10;33.20;;;;;;;19.02;nan;98905.25;2089853;28;20567;-78
2021/07/17 03:11:49;;;;;;;35.83;31.80;;;;;;;19.00;nan;98897.50;2089870;28;20449;-78
2021/07/17 03:12:50;;;;;;;36.40;32.60;;;;;;;19.02;nan;98902.53;2089315;28;20458;-78
2021/07/17 03:13:51;;;;;;;35.90;32.20;;;;;;;19.04;nan;98898.38;2089296;28;20445;-77
2021/07/17 03:14:52;;;;;;;36.57;32.83;;;;;;;19.03;nan;98906.84;2088621;28;20597;-77
2021/07/17 03:15:53;;;;;;;40.47;32.97;;;;;;;19.05;nan;98910.75;2089797;28;20532;-78
2021/07/17 03:16:54;;;;;;;36.53;32.80;;;;;;;19.06;nan;98915.00;2089830;28;20223;-78
2021/07/17 03:17:57;;;;;;;36.53;32.87;;;;;;;19.08;nan;98920.84;2089734;28;20457;-78
2021/07/17 03:18:58;;;;;;;36.17;32.50;;;;;;;19.08;nan;98912.72;2089770;28;20453;-78
2021/07/17 03:20:00;;;;;;;35.57;32.07;;;;;;;19.09;nan;98916.22;2089897;28;20453;-78
2021/07/17 03:21:00;;;;;;;36.10;32.50;;;;;;;19.08;nan;98911.94;2088701;28;20254;-78
2021/07/17 03:22:04;;;;;;;36.20;32.40;;;;;;;19.08;nan;98917.34;2088859;28;20461;-77
2021/07/17 03:23:05;;;;;;;36.60;32.77;;;;;;;19.09;nan;98910.81;2089070;28;20441;-78
2021/07/17 03:24:07;;;;;;;35.80;32.00;;;;;;;19.09;nan;98917.00;2089070;28;20517;-78
2021/07/17 03:25:10;;;;;;;36.87;32.77;;;;;;;19.08;nan;98923.53;2088584;28;20302;-78
2021/07/17 03:26:11;;;;;;;35.17;31.33;;;;;;;19.06;nan;98917.72;2080991;28;20443;-78
2021/07/17 03:27:12;;;;;;;35.50;32.00;;;;;;;19.08;nan;98920.84;2089064;28;20935;-78
2021/07/17 03:28:14;;;;;;;36.20;32.37;;;;;;;19.12;nan;98921.72;2089747;28;20798;-78
2021/07/17 03:29:14;;;;;;;39.67;33.10;;;;;;;19.11;nan;98922.84;2088880;28;20258;-77
2021/07/17 03:30:17;;;;;;;38.00;33.80;;;;;;;19.13;nan;98928.69;2088911;28;20448;-78
2021/07/17 03:31:25;;;;;;;41.13;33.77;;;;;;;19.14;nan;98929.47;2089171;28;20250;-78
2021/07/17 03:32:27;;;;;;;37.63;33.23;;;;;;;19.17;nan;98929.53;2088774;28;20824;-78
2021/07/17 03:33:29;;;;;;;37.03;33.43;;;;;;;19.17;nan;98924.13;2088968;28;20481;-77
2021/07/17 03:34:30;;;;;;;37.17;33.30;;;;;;;19.17;nan;98924.13;2089054;28;20441;-77
2021/07/17 03:35:32;;;;;;;36.17;32.30;;;;;;;19.12;nan;98916.31;2089126;28;20456;-78
2021/07/17 03:36:34;;;;;;;34.40;30.87;;;;;;;19.13;nan;98907.03;2088927;28;20453;-78
2021/07/17 03:37:35;;;;;;;35.73;31.37;;;;;;;19.15;nan;98915.56;2089724;28;20453;-77
2021/07/17 03:38:36;;;;;;;34.27;30.57;;;;;;;19.14;nan;98916.72;2088912;28;20971;-78
2021/07/17 03:39:37;;;;;;;35.60;32.00;;;;;;;19.15;nan;98915.56;2088449;28;20230;-78
2021/07/17 03:40:40;;;;;;;34.47;30.67;;;;;;;19.15;nan;98904.75;2088793;28;20549;-78
2021/07/17 03:41:42;;;;;;;36.73;31.67;;;;;;;19.16;nan;98905.53;2081190;28;20715;-78
2021/07/17 03:42:44;;;;;;;39.53;33.23;;;;;;;19.15;nan;98904.75;2088863;28;20864;-78
2021/07/17 03:43:45;;;;;;;36.03;32.17;;;;;;;19.13;nan;98903.56;2088319;28;20305;-78
2021/07/17 03:44:47;;;;;;;35.80;32.10;;;;;;;19.11;nan;98900.41;2089168;28;20926;-78
2021/07/17 03:45:47;;;;;;;35.30;31.53;;;;;;;19.10;nan;98901.56;2088902;28;20454;-79
2021/07/17 03:46:49;;;;;;;36.47;32.83;;;;;;;19.13;nan;98919.78;2080933;28;20450;-79
2021/07/17 03:47:50;;;;;;;35.37;31.80;;;;;;;19.18;nan;98925.69;2088958;28;20230;-79
2021/07/17 03:48:51;;;;;;;35.60;31.83;;;;;;;19.23;nan;98919.22;2089682;28;20449;-79
2021/07/17 03:49:52;;;;;;;34.13;30.63;;;;;;;19.25;nan;98913.44;2088146;28;20227;-79
2021/07/17 03:50:54;;;;;;;37.63;31.73;;;;;;;19.28;nan;98912.72;2088921;28;20453;-78
2021/07/17 03:51:54;;;;;;;35.30;31.73;;;;;;;19.28;nan;98918.91;2097058;28;20222;-79
2021/07/17 03:52:56;;;;;;;34.23;30.87;;;;;;;19.31;nan;98920.13;2097221;28;20523;-78
2021/07/17 03:53:57;;;;;;;34.03;30.37;;;;;;;19.32;nan;98927.88;2089596;28;20239;-79
2021/07/17 03:54:58;;;;;;;33.17;29.53;;;;;;;19.32;nan;98919.00;2089072;28;20454;-79
2021/07/17 03:56:00;;;;;;;33.87;30.43;;;;;;;19.32;nan;98913.59;2088846;28;20239;-79
2021/07/17 03:57:02;;;;;;;40.67;36.40;;;;;;;19.33;nan;98917.84;2088743;28;21046;-79
2021/07/17 03:58:04;;;;;;;42.20;37.60;;;;;;;19.33;nan;98920.56;2089545;28;20468;-78
2021/07/17 03:59:04;;;;;;;42.13;37.63;;;;;;;19.35;nan;98918.28;2089630;28;20520;-80
2021/07/17 04:00:07;;;;;;;46.83;38.10;;;;;;;19.34;nan;98911.28;2089506;28;20445;-79
2021/07/17 04:01:08;;;;;;;42.57;36.43;;;;;;;19.39;nan;98911.03;2089059;28;20229;-78
2021/07/17 04:02:10;;;;;;;44.33;36.67;;;;;;;19.42;nan;98913.00;2088525;28;20460;-79
2021/07/17 04:03:11;;;;;;;41.43;37.07;;;;;;;19.42;nan;98910.28;2088625;28;20231;-79
2021/07/17 04:04:13;;;;;;;40.50;36.33;;;;;;;19.44;nan;98908.00;2088869;28;20472;-79
2021/07/17 04:05:16;;;;;;;41.97;37.60;;;;;;;19.44;nan;98911.50;2080733;28;20443;-79
2021/07/17 04:06:17;;;;;;;45.23;37.70;;;;;;;19.45;nan;98906.84;2088757;28;20541;-79
2021/07/17 04:07:18;;;;;;;41.50;37.20;;;;;;;19.48;nan;98906.16;2088837;28;21006;-78
2021/07/17 04:08:19;;;;;;;44.40;39.37;;;;;;;19.51;nan;98902.72;2088762;28;20226;-79
2021/07/17 04:09:20;;;;;;;42.27;37.90;;;;;;;19.52;nan;98901.59;2088748;28;20450;-79
2021/07/17 04:10:21;;;;;;;47.03;37.70;;;;;;;19.54;nan;98904.72;2089439;28;20226;-79
2021/07/17 04:11:25;;;;;;;41.57;36.80;;;;;;;19.53;nan;98900.44;2088910;28;21038;-79
2021/07/17 04:12:26;;;;;;;39.77;35.47;;;;;;;19.55;nan;98900.09;2089388;28;20826;-78
2021/07/17 04:13:28;;;;;;;43.70;37.23;;;;;;;19.53;nan;98896.94;2089403;28;20507;-78
2021/07/17 04:14:28;;;;;;;47.47;35.80;;;;;;;19.54;nan;98904.72;2089451;28;20452;-79
2021/07/17 04:15:30;;;;;;;40.60;36.10;;;;;;;19.55;nan;98906.28;2089040;28;20456;-78
2021/07/17 04:16:31;;;;;;;40.37;35.80;;;;;;;19.55;nan;98906.28;2088746;28;20229;-78
2021/07/17 04:17:32;;;;;;;45.00;36.37;;;;;;;19.57;nan;98906.75;2088586;28;20448;-78
2021/07/17 04:18:33;;;;;;;43.03;35.80;;;;;;;19.59;nan;98901.75;2088804;28;20218;-78
2021/07/17 04:19:35;;;;;;;42.33;35.40;;;;;;;19.63;nan;98907.22;2088453;28;20449;-79
2021/07/17 04:20:36;;;;;;;42.87;35.53;;;;;;;19.64;nan;98904.16;2088751;28;20218;-79
2021/07/17 04:21:37;;;;;;;39.73;35.40;;;;;;;19.66;nan;98907.28;2088901;28;20452;-79
2021/07/17 04:22:38;;;;;;;37.10;32.90;;;;;;;19.66;nan;98904.59;2089367;28;20238;-78
2021/07/17 04:23:40;;;;;;;37.93;33.83;;;;;;;19.68;nan;98898.81;2089304;28;20533;-79
2021/07/17 04:24:41;;;;;;;38.47;34.20;;;;;;;19.69;nan;98901.16;2088635;28;20229;-79
2021/07/17 04:25:42;;;;;;;39.77;33.13;;;;;;;19.71;nan;98903.50;2088114;28;20460;-79
2021/07/17 04:26:44;;;;;;;38.03;33.23;;;;;;;19.72;nan;98903.16;2096852;28;20230;-78
2021/07/17 04:27:46;;;;;;;37.83;33.73;;;;;;;19.70;nan;98900.00;2089258;28;20445;-79
2021/07/17 04:28:47;;;;;;;42.20;33.70;;;;;;;19.73;nan;98903.94;2089163;28;20458;-79
2021/07/17 04:29:49;;;;;;;36.83;32.93;;;;;;;19.72;nan;98900.44;2088906;28;21013;-79
2021/07/17 04:30:49;;;;;;;39.83;34.03;;;;;;;19.72;nan;98905.06;2088507;28;20309;-79
2021/07/17 04:31:51;;;;;;;40.47;33.40;;;;;;;19.73;nan;98893.09;2088434;28;20440;-78
2021/07/17 04:32:52;;;;;;;38.67;33.97;;;;;;;19.73;nan;98902.00;2088274;28;20234;-78
2021/07/17 04:33:53;;;;;;;37.60;33.83;;;;;;;19.77;nan;98905.53;2096069;28;20472;-78
2021/07/17 04:34:54;;;;;;;36.87;33.03;;;;;;;19.79;nan;98907.09;2096726;28;20225;-78
2021/07/17 04:35:56;;;;;;;42.23;34.53;;;;;;;19.79;nan;98904.41;2088509;28;20457;-78
2021/07/17 04:36:57;;;;;;;41.00;32.33;;;;;;;19.81;nan;98899.41;2088685;28;20328;-79
2021/07/17 04:37:59;;;;;;;36.37;32.30;;;;;;;19.83;nan;98899.84;2088580;28;20473;-79
2021/07/17 04:38:59;;;;;;;36.33;32.50;;;;;;;19.82;nan;98899.06;2088656;28;20246;-79
2021/07/17 04:40:01;;;;;;;36.30;32.40;;;;;;;19.85;nan;98902.97;2088476;28;20445;-79
2021/07/17 04:41:02;;;;;;;36.53;32.70;;;;;;;19.87;nan;98906.88;2080237;28;20600;-78
2021/07/17 04:42:05;;;;;;;36.00;32.00;;;;;;;19.88;nan;98908.44;2087965;28;20544;-79
2021/07/17 04:43:07;;;;;;;35.73;31.83;;;;;;;19.92;nan;98908.50;2080147;28;20235;-79
2021/07/17 04:44:08;;;;;;;37.67;32.27;;;;;;;19.93;nan;98910.06;2088481;28;20445;-79
2021/07/17 04:45:10;;;;;;;33.97;30.43;;;;;;;19.95;nan;98913.19;2088482;28;20249;-79
2021/07/17 04:46:12;;;;;;;34.20;30.77;;;;;;;19.94;nan;98914.34;2088433;28;20862;-79
2021/07/17 04:47:12;;;;;;;34.73;31.23;;;;;;;19.97;nan;98906.25;2096516;28;20463;-79
2021/07/17 04:48:15;;;;;;;33.80;30.20;;;;;;;19.98;nan;98909.75;2096660;28;20514;-79
2021/07/17 04:49:15;;;;;;;38.17;31.07;;;;;;;20.02;nan;98913.31;2088534;28;20957;-79
2021/07/17 04:50:17;;;;;;;33.57;30.17;;;;;;;20.04;nan;98905.59;2088531;28;20516;-79